This is the latest recevied weather packets stored in our database for station/object AG1T-1. If no packets are shown the sender has not sent any weather packets the latest 1 day(s).
| Time | Temp. | Humidity | Pressure | Rain* | Wind** | Luminosity | Snow |
|---|---|---|---|---|---|---|---|
| 1777988403 | 11.11° C | 80% | 1012.8 hPa | 0 mm | 0.45 m/s, 332° | 12 W/m² | - |
| 1777987803 | 11.11° C | 80% | 1012.8 hPa | 0 mm | 0.45 m/s, 336° | 11 W/m² | - |
| 1777987203 | 11.11° C | 80% | 1012.6 hPa | 0 mm | 0.89 m/s, 343° | 5 W/m² | - |
| 1777986603 | 11.11° C | 79% | 1012.6 hPa | 0 mm | 0.89 m/s, 324° | 0 W/m² | - |
| 1777986003 | 11.67° C | 78% | 1012.5 hPa | 0 mm | 1.34 m/s, 314° | 0 W/m² | - |
| 1777985403 | 11.67° C | 74% | 1012.4 hPa | 0 mm | 2.24 m/s, 318° | 0 W/m² | - |
| 1777984803 | 12.22° C | 68% | 1012.1 hPa | 0 mm | 0.45 m/s, 292° | 0 W/m² | - |
| 1777984203 | 12.22° C | 65% | 1011.9 hPa | 0 mm | 0.45 m/s, 271° | 0 W/m² | - |
| 1777983603 | 11.67° C | 66% | 1011.8 hPa | 0 mm | 0.89 m/s, 280° | 0 W/m² | - |
| 1777983003 | 11.67° C | 71% | 1011.8 hPa | 0 mm | 0.45 m/s, 276° | 0 W/m² | - |
| 1777982403 | 11.67° C | 70% | 1011.6 hPa | 0 mm | 0 m/s | 0 W/m² | - |
| 1777981803 | 12.22° C | 68% | 1011.6 hPa | 0 mm | 0 m/s | 0 W/m² | - |
| 1777981203 | 12.22° C | 65% | 1011.4 hPa | 0 mm | 0 m/s | 0 W/m² | - |
| 1777980603 | 12.22° C | 64% | 1011.4 hPa | 0 mm | 0 m/s | 0 W/m² | - |
| 1777980003 | 12.78° C | 63% | 1011.3 hPa | 0 mm | 0 m/s | 0 W/m² | - |
| 1777979403 | 13.33° C | 62% | 1011.3 hPa | 0 mm | 0.45 m/s, 233° | 0 W/m² | - |
| 1777978803 | 13.33° C | 58% | 1011.3 hPa | 0 mm | 0 m/s | 0 W/m² | - |
| 1777978203 | 13.33° C | 57% | 1011.2 hPa | 0 mm | 0 m/s | 0 W/m² | - |
| 1777977603 | 13.33° C | 56% | 1011.2 hPa | 0 mm | 0.45 m/s, 116° | 0 W/m² | - |
| 1777977003 | 13.33° C | 56% | 1011.2 hPa | 0 mm | 1.34 m/s, 120° | 0 W/m² | - |
| 1777976403 | 12.78° C | 57% | 1011.2 hPa | 0 mm | 1.34 m/s, 146° | 0 W/m² | - |
* Rain latest hour (hover to see other rain measurements)
** Current wind speed in m/s (hover to see current wind gust speed)